sensor_id;sensor_type;location;lat;lon;timestamp;P1;durP1;ratioP1;P2;durP2;ratioP2
7473;SDS011;3778;42.572;23.426;2023-03-23T00:00:49;12.37;;;7.37;;
7473;SDS011;3778;42.572;23.426;2023-03-23T00:03:17;12.03;;;6.40;;
7473;SDS011;3778;42.572;23.426;2023-03-23T00:05:46;12.97;;;7.33;;
7473;SDS011;3778;42.572;23.426;2023-03-23T00:08:15;11.40;;;6.77;;
7473;SDS011;3778;42.572;23.426;2023-03-23T00:10:42;13.77;;;7.23;;
7473;SDS011;3778;42.572;23.426;2023-03-23T00:13:09;10.60;;;6.67;;
7473;SDS011;3778;42.572;23.426;2023-03-23T00:15:36;13.33;;;7.40;;
7473;SDS011;3778;42.572;23.426;2023-03-23T00:18:06;14.33;;;6.80;;
7473;SDS011;3778;42.572;23.426;2023-03-23T00:20:34;10.93;;;7.07;;
7473;SDS011;3778;42.572;23.426;2023-03-23T00:23:06;10.53;;;6.70;;
7473;SDS011;3778;42.572;23.426;2023-03-23T00:25:33;11.43;;;7.90;;
7473;SDS011;3778;42.572;23.426;2023-03-23T00:28:00;11.77;;;6.63;;
7473;SDS011;3778;42.572;23.426;2023-03-23T00:30:27;13.17;;;7.03;;
7473;SDS011;3778;42.572;23.426;2023-03-23T00:32:54;11.43;;;6.90;;
7473;SDS011;3778;42.572;23.426;2023-03-23T00:35:22;10.87;;;6.43;;
7473;SDS011;3778;42.572;23.426;2023-03-23T00:37:51;10.73;;;6.30;;
7473;SDS011;3778;42.572;23.426;2023-03-23T00:40:18;10.70;;;6.63;;
7473;SDS011;3778;42.572;23.426;2023-03-23T00:42:44;11.40;;;7.10;;
7473;SDS011;3778;42.572;23.426;2023-03-23T00:45:13;9.87;;;6.20;;
7473;SDS011;3778;42.572;23.426;2023-03-23T00:47:41;10.47;;;6.33;;
7473;SDS011;3778;42.572;23.426;2023-03-23T00:50:12;13.47;;;6.83;;
7473;SDS011;3778;42.572;23.426;2023-03-23T00:52:39;11.57;;;6.67;;
7473;SDS011;3778;42.572;23.426;2023-03-23T00:55:08;10.13;;;5.97;;
7473;SDS011;3778;42.572;23.426;2023-03-23T00:57:34;12.77;;;7.17;;
7473;SDS011;3778;42.572;23.426;2023-03-23T01:00:01;10.50;;;6.13;;
7473;SDS011;3778;42.572;23.426;2023-03-23T01:02:34;9.77;;;6.23;;
7473;SDS011;3778;42.572;23.426;2023-03-23T01:05:00;11.20;;;6.60;;
7473;SDS011;3778;42.572;23.426;2023-03-23T01:07:28;11.47;;;6.20;;
7473;SDS011;3778;42.572;23.426;2023-03-23T01:09:56;13.93;;;6.77;;
7473;SDS011;3778;42.572;23.426;2023-03-23T01:12:26;11.73;;;6.70;;
7473;SDS011;3778;42.572;23.426;2023-03-23T01:14:53;9.50;;;6.43;;
7473;SDS011;3778;42.572;23.426;2023-03-23T01:17:20;10.43;;;6.30;;
7473;SDS011;3778;42.572;23.426;2023-03-23T01:19:47;13.33;;;7.40;;
7473;SDS011;3778;42.572;23.426;2023-03-23T01:22:13;11.70;;;6.83;;
7473;SDS011;3778;42.572;23.426;2023-03-23T01:24:40;15.70;;;6.80;;
7473;SDS011;3778;42.572;23.426;2023-03-23T01:27:07;12.53;;;6.30;;
7473;SDS011;3778;42.572;23.426;2023-03-23T01:29:35;12.63;;;7.70;;
7473;SDS011;3778;42.572;23.426;2023-03-23T01:32:02;12.60;;;6.43;;
7473;SDS011;3778;42.572;23.426;2023-03-23T01:34:29;8.50;;;6.03;;
7473;SDS011;3778;42.572;23.426;2023-03-23T01:36:56;9.80;;;6.60;;
7473;SDS011;3778;42.572;23.426;2023-03-23T01:39:23;10.77;;;6.33;;
7473;SDS011;3778;42.572;23.426;2023-03-23T01:41:49;11.47;;;6.50;;
7473;SDS011;3778;42.572;23.426;2023-03-23T01:47:22;10.77;;;6.27;;
7473;SDS011;3778;42.572;23.426;2023-03-23T01:49:51;9.33;;;5.67;;
7473;SDS011;3778;42.572;23.426;2023-03-23T01:52:19;11.40;;;6.70;;
7473;SDS011;3778;42.572;23.426;2023-03-23T01:54:50;12.57;;;7.17;;
7473;SDS011;3778;42.572;23.426;2023-03-23T01:57:19;9.67;;;6.17;;
7473;SDS011;3778;42.572;23.426;2023-03-23T01:59:52;13.40;;;7.27;;
7473;SDS011;3778;42.572;23.426;2023-03-23T02:02:22;11.83;;;7.83;;
7473;SDS011;3778;42.572;23.426;2023-03-23T02:04:51;14.77;;;6.90;;
7473;SDS011;3778;42.572;23.426;2023-03-23T02:07:21;9.97;;;6.57;;
7473;SDS011;3778;42.572;23.426;2023-03-23T02:09:49;10.43;;;6.93;;
7473;SDS011;3778;42.572;23.426;2023-03-23T02:12:16;13.20;;;6.97;;
7473;SDS011;3778;42.572;23.426;2023-03-23T02:14:43;12.10;;;6.93;;
7473;SDS011;3778;42.572;23.426;2023-03-23T02:17:10;11.80;;;6.60;;
7473;SDS011;3778;42.572;23.426;2023-03-23T02:20:01;12.17;;;7.47;;
7473;SDS011;3778;42.572;23.426;2023-03-23T02:22:44;10.83;;;6.47;;
7473;SDS011;3778;42.572;23.426;2023-03-23T02:25:27;10.30;;;6.63;;
7473;SDS011;3778;42.572;23.426;2023-03-23T02:28:10;11.07;;;6.17;;
7473;SDS011;3778;42.572;23.426;2023-03-23T02:31:06;12.53;;;6.60;;
7473;SDS011;3778;42.572;23.426;2023-03-23T02:33:49;13.37;;;6.83;;
7473;SDS011;3778;42.572;23.426;2023-03-23T02:36:22;12.40;;;7.03;;
7473;SDS011;3778;42.572;23.426;2023-03-23T02:38:55;12.70;;;6.93;;
7473;SDS011;3778;42.572;23.426;2023-03-23T02:41:27;11.37;;;6.93;;
7473;SDS011;3778;42.572;23.426;2023-03-23T02:43:56;13.63;;;7.83;;
7473;SDS011;3778;42.572;23.426;2023-03-23T02:46:24;13.17;;;8.27;;
7473;SDS011;3778;42.572;23.426;2023-03-23T02:48:54;13.97;;;8.30;;
7473;SDS011;3778;42.572;23.426;2023-03-23T02:51:23;15.43;;;8.40;;
7473;SDS011;3778;42.572;23.426;2023-03-23T02:53:51;15.53;;;8.57;;
7473;SDS011;3778;42.572;23.426;2023-03-23T02:56:19;13.93;;;8.63;;
7473;SDS011;3778;42.572;23.426;2023-03-23T02:58:49;14.17;;;8.10;;
7473;SDS011;3778;42.572;23.426;2023-03-23T03:01:45;13.87;;;7.27;;
7473;SDS011;3778;42.572;23.426;2023-03-23T03:04:18;10.03;;;5.97;;
7473;SDS011;3778;42.572;23.426;2023-03-23T03:06:47;13.23;;;7.30;;
7473;SDS011;3778;42.572;23.426;2023-03-23T03:09:24;13.37;;;8.00;;
7473;SDS011;3778;42.572;23.426;2023-03-23T03:11:58;9.30;;;5.97;;
7473;SDS011;3778;42.572;23.426;2023-03-23T03:14:33;12.67;;;6.67;;
7473;SDS011;3778;42.572;23.426;2023-03-23T03:17:04;12.70;;;6.53;;
7473;SDS011;3778;42.572;23.426;2023-03-23T03:19:38;15.10;;;8.27;;
7473;SDS011;3778;42.572;23.426;2023-03-23T03:22:08;16.03;;;7.80;;
7473;SDS011;3778;42.572;23.426;2023-03-23T03:24:36;14.67;;;8.43;;
7473;SDS011;3778;42.572;23.426;2023-03-23T03:27:05;15.70;;;8.87;;
7473;SDS011;3778;42.572;23.426;2023-03-23T03:29:40;14.13;;;7.70;;
7473;SDS011;3778;42.572;23.426;2023-03-23T03:32:08;18.50;;;9.63;;
7473;SDS011;3778;42.572;23.426;2023-03-23T03:34:40;19.73;;;9.27;;
7473;SDS011;3778;42.572;23.426;2023-03-23T03:37:06;19.10;;;7.97;;
7473;SDS011;3778;42.572;23.426;2023-03-23T03:39:34;13.37;;;8.57;;
7473;SDS011;3778;42.572;23.426;2023-03-23T03:42:02;16.37;;;8.00;;
7473;SDS011;3778;42.572;23.426;2023-03-23T03:44:29;14.20;;;7.90;;
7473;SDS011;3778;42.572;23.426;2023-03-23T03:46:56;16.57;;;8.07;;
7473;SDS011;3778;42.572;23.426;2023-03-23T03:49:22;11.93;;;7.67;;
7473;SDS011;3778;42.572;23.426;2023-03-23T03:51:51;15.40;;;7.47;;
7473;SDS011;3778;42.572;23.426;2023-03-23T03:54:17;15.87;;;7.90;;
7473;SDS011;3778;42.572;23.426;2023-03-23T03:56:44;38.47;;;9.50;;
7473;SDS011;3778;42.572;23.426;2023-03-23T03:59:11;72.33;;;13.10;;
7473;SDS011;3778;42.572;23.426;2023-03-23T04:01:38;87.07;;;13.00;;
7473;SDS011;3778;42.572;23.426;2023-03-23T04:04:05;70.37;;;13.60;;
7473;SDS011;3778;42.572;23.426;2023-03-23T04:06:32;70.13;;;11.90;;
7473;SDS011;3778;42.572;23.426;2023-03-23T04:09:04;30.73;;;9.93;;
7473;SDS011;3778;42.572;23.426;2023-03-23T04:11:32;24.03;;;8.00;;
7473;SDS011;3778;42.572;23.426;2023-03-23T04:13:59;20.37;;;8.90;;
7473;SDS011;3778;42.572;23.426;2023-03-23T04:16:27;25.63;;;8.57;;
7473;SDS011;3778;42.572;23.426;2023-03-23T04:18:55;31.83;;;9.33;;
7473;SDS011;3778;42.572;23.426;2023-03-23T04:21:22;25.47;;;9.47;;
7473;SDS011;3778;42.572;23.426;2023-03-23T04:23:54;21.50;;;8.67;;
7473;SDS011;3778;42.572;23.426;2023-03-23T04:26:22;21.20;;;8.97;;
7473;SDS011;3778;42.572;23.426;2023-03-23T04:28:49;14.40;;;8.10;;
7473;SDS011;3778;42.572;23.426;2023-03-23T04:31:17;30.20;;;8.93;;
7473;SDS011;3778;42.572;23.426;2023-03-23T04:33:43;36.07;;;11.17;;
7473;SDS011;3778;42.572;23.426;2023-03-23T04:36:11;14.77;;;7.93;;
7473;SDS011;3778;42.572;23.426;2023-03-23T04:38:41;45.73;;;8.60;;
7473;SDS011;3778;42.572;23.426;2023-03-23T04:41:08;18.03;;;9.60;;
7473;SDS011;3778;42.572;23.426;2023-03-23T04:43:36;18.30;;;8.63;;
7473;SDS011;3778;42.572;23.426;2023-03-23T04:46:06;18.17;;;7.83;;
7473;SDS011;3778;42.572;23.426;2023-03-23T04:48:34;23.83;;;7.93;;
7473;SDS011;3778;42.572;23.426;2023-03-23T04:51:04;14.03;;;7.43;;
7473;SDS011;3778;42.572;23.426;2023-03-23T04:53:31;12.70;;;7.33;;
7473;SDS011;3778;42.572;23.426;2023-03-23T04:55:58;18.27;;;8.60;;
7473;SDS011;3778;42.572;23.426;2023-03-23T04:58:26;14.90;;;8.00;;
7473;SDS011;3778;42.572;23.426;2023-03-23T05:00:56;17.53;;;9.30;;
7473;SDS011;3778;42.572;23.426;2023-03-23T05:03:22;16.33;;;8.70;;
7473;SDS011;3778;42.572;23.426;2023-03-23T05:05:50;19.20;;;9.43;;
7473;SDS011;3778;42.572;23.426;2023-03-23T05:08:17;20.27;;;9.27;;
7473;SDS011;3778;42.572;23.426;2023-03-23T05:10:49;15.83;;;8.57;;
7473;SDS011;3778;42.572;23.426;2023-03-23T05:13:17;19.27;;;9.07;;
7473;SDS011;3778;42.572;23.426;2023-03-23T05:15:44;18.43;;;9.20;;
7473;SDS011;3778;42.572;23.426;2023-03-23T05:18:12;17.53;;;9.30;;
7473;SDS011;3778;42.572;23.426;2023-03-23T05:20:38;18.10;;;9.13;;
7473;SDS011;3778;42.572;23.426;2023-03-23T05:23:07;19.03;;;9.60;;
7473;SDS011;3778;42.572;23.426;2023-03-23T05:25:34;16.67;;;8.47;;
7473;SDS011;3778;42.572;23.426;2023-03-23T05:28:05;15.17;;;7.97;;
7473;SDS011;3778;42.572;23.426;2023-03-23T05:30:32;14.77;;;7.40;;
7473;SDS011;3778;42.572;23.426;2023-03-23T05:32:59;15.20;;;8.83;;
7473;SDS011;3778;42.572;23.426;2023-03-23T05:35:27;17.03;;;8.00;;
7473;SDS011;3778;42.572;23.426;2023-03-23T05:37:54;13.13;;;7.30;;
7473;SDS011;3778;42.572;23.426;2023-03-23T05:40:21;14.43;;;8.10;;
7473;SDS011;3778;42.572;23.426;2023-03-23T05:42:50;13.37;;;7.97;;
7473;SDS011;3778;42.572;23.426;2023-03-23T05:45:17;11.30;;;7.17;;
7473;SDS011;3778;42.572;23.426;2023-03-23T05:47:45;11.40;;;7.30;;
7473;SDS011;3778;42.572;23.426;2023-03-23T05:50:13;11.97;;;7.23;;
7473;SDS011;3778;42.572;23.426;2023-03-23T05:52:41;12.83;;;8.13;;
7473;SDS011;3778;42.572;23.426;2023-03-23T05:55:08;11.27;;;7.47;;
7473;SDS011;3778;42.572;23.426;2023-03-23T05:57:35;11.43;;;6.43;;
7473;SDS011;3778;42.572;23.426;2023-03-23T06:00:03;11.90;;;6.53;;
7473;SDS011;3778;42.572;23.426;2023-03-23T06:02:45;11.87;;;6.70;;
7473;SDS011;3778;42.572;23.426;2023-03-23T06:05:13;10.03;;;7.03;;
7473;SDS011;3778;42.572;23.426;2023-03-23T06:07:42;11.37;;;6.43;;
7473;SDS011;3778;42.572;23.426;2023-03-23T06:10:09;12.80;;;6.87;;
7473;SDS011;3778;42.572;23.426;2023-03-23T06:12:37;11.80;;;6.80;;
7473;SDS011;3778;42.572;23.426;2023-03-23T06:15:05;15.53;;;7.40;;
7473;SDS011;3778;42.572;23.426;2023-03-23T06:17:33;12.97;;;7.20;;
7473;SDS011;3778;42.572;23.426;2023-03-23T06:20:01;11.10;;;6.53;;
7473;SDS011;3778;42.572;23.426;2023-03-23T06:22:34;11.13;;;6.73;;
7473;SDS011;3778;42.572;23.426;2023-03-23T06:25:02;10.70;;;6.20;;
7473;SDS011;3778;42.572;23.426;2023-03-23T06:27:29;11.47;;;6.97;;
7473;SDS011;3778;42.572;23.426;2023-03-23T06:29:56;12.43;;;6.97;;
7473;SDS011;3778;42.572;23.426;2023-03-23T06:32:23;12.93;;;7.10;;
7473;SDS011;3778;42.572;23.426;2023-03-23T06:34:51;11.37;;;6.47;;
7473;SDS011;3778;42.572;23.426;2023-03-23T06:37:18;10.03;;;6.10;;
7473;SDS011;3778;42.572;23.426;2023-03-23T06:39:44;8.40;;;5.67;;
7473;SDS011;3778;42.572;23.426;2023-03-23T06:42:12;10.47;;;6.33;;
7473;SDS011;3778;42.572;23.426;2023-03-23T06:44:39;10.63;;;6.27;;
7473;SDS011;3778;42.572;23.426;2023-03-23T06:47:06;9.63;;;7.23;;
7473;SDS011;3778;42.572;23.426;2023-03-23T06:49:33;15.97;;;6.63;;
7473;SDS011;3778;42.572;23.426;2023-03-23T06:51:59;11.40;;;6.90;;
7473;SDS011;3778;42.572;23.426;2023-03-23T06:54:28;11.00;;;6.13;;
7473;SDS011;3778;42.572;23.426;2023-03-23T06:56:55;9.20;;;6.50;;
7473;SDS011;3778;42.572;23.426;2023-03-23T06:59:23;9.60;;;6.30;;
7473;SDS011;3778;42.572;23.426;2023-03-23T07:01:50;8.93;;;5.47;;
7473;SDS011;3778;42.572;23.426;2023-03-23T07:04:17;9.97;;;5.90;;
7473;SDS011;3778;42.572;23.426;2023-03-23T07:06:43;8.17;;;5.50;;
7473;SDS011;3778;42.572;23.426;2023-03-23T07:09:10;9.10;;;5.97;;
7473;SDS011;3778;42.572;23.426;2023-03-23T07:11:37;9.53;;;6.43;;
7473;SDS011;3778;42.572;23.426;2023-03-23T07:14:04;9.97;;;6.57;;
7473;SDS011;3778;42.572;23.426;2023-03-23T07:16:32;9.63;;;6.03;;
7473;SDS011;3778;42.572;23.426;2023-03-23T07:18:59;10.00;;;6.03;;
7473;SDS011;3778;42.572;23.426;2023-03-23T07:21:26;9.57;;;5.67;;
7473;SDS011;3778;42.572;23.426;2023-03-23T07:23:53;9.77;;;6.40;;
7473;SDS011;3778;42.572;23.426;2023-03-23T07:26:19;9.70;;;6.63;;
7473;SDS011;3778;42.572;23.426;2023-03-23T07:28:46;11.17;;;6.27;;
7473;SDS011;3778;42.572;23.426;2023-03-23T07:31:13;10.30;;;5.67;;
7473;SDS011;3778;42.572;23.426;2023-03-23T07:33:41;10.47;;;6.67;;
7473;SDS011;3778;42.572;23.426;2023-03-23T07:36:09;8.53;;;6.13;;
7473;SDS011;3778;42.572;23.426;2023-03-23T07:38:37;7.70;;;5.73;;
7473;SDS011;3778;42.572;23.426;2023-03-23T07:41:05;9.63;;;6.00;;
7473;SDS011;3778;42.572;23.426;2023-03-23T07:43:32;8.87;;;5.50;;
7473;SDS011;3778;42.572;23.426;2023-03-23T07:45:59;7.50;;;5.03;;
7473;SDS011;3778;42.572;23.426;2023-03-23T07:48:25;14.60;;;6.03;;
7473;SDS011;3778;42.572;23.426;2023-03-23T07:50:54;8.23;;;5.50;;
7473;SDS011;3778;42.572;23.426;2023-03-23T07:53:21;9.17;;;5.83;;
7473;SDS011;3778;42.572;23.426;2023-03-23T07:55:49;6.90;;;5.40;;
7473;SDS011;3778;42.572;23.426;2023-03-23T07:58:15;8.50;;;5.70;;
7473;SDS011;3778;42.572;23.426;2023-03-23T08:00:44;7.33;;;5.97;;
7473;SDS011;3778;42.572;23.426;2023-03-23T08:03:13;7.63;;;5.70;;
7473;SDS011;3778;42.572;23.426;2023-03-23T08:05:40;6.83;;;5.20;;
7473;SDS011;3778;42.572;23.426;2023-03-23T08:08:09;9.30;;;6.00;;
7473;SDS011;3778;42.572;23.426;2023-03-23T08:10:35;6.07;;;4.60;;
7473;SDS011;3778;42.572;23.426;2023-03-23T08:13:03;8.10;;;6.07;;
7473;SDS011;3778;42.572;23.426;2023-03-23T08:15:31;9.10;;;5.87;;
7473;SDS011;3778;42.572;23.426;2023-03-23T08:18:03;9.63;;;6.60;;
7473;SDS011;3778;42.572;23.426;2023-03-23T08:20:30;8.30;;;5.30;;
7473;SDS011;3778;42.572;23.426;2023-03-23T08:22:57;10.50;;;6.23;;
7473;SDS011;3778;42.572;23.426;2023-03-23T08:25:26;8.57;;;6.27;;
7473;SDS011;3778;42.572;23.426;2023-03-23T08:27:56;7.47;;;5.83;;
7473;SDS011;3778;42.572;23.426;2023-03-23T08:30:23;10.50;;;7.70;;
7473;SDS011;3778;42.572;23.426;2023-03-23T08:32:50;15.30;;;9.00;;
7473;SDS011;3778;42.572;23.426;2023-03-23T08:35:18;13.37;;;8.33;;
7473;SDS011;3778;42.572;23.426;2023-03-23T08:37:46;15.57;;;10.00;;
7473;SDS011;3778;42.572;23.426;2023-03-23T08:40:16;19.00;;;11.20;;
7473;SDS011;3778;42.572;23.426;2023-03-23T08:42:47;16.23;;;9.90;;
7473;SDS011;3778;42.572;23.426;2023-03-23T08:45:15;18.03;;;10.63;;
7473;SDS011;3778;42.572;23.426;2023-03-23T08:47:43;14.83;;;8.97;;
7473;SDS011;3778;42.572;23.426;2023-03-23T08:50:12;14.37;;;9.30;;
7473;SDS011;3778;42.572;23.426;2023-03-23T08:52:40;18.10;;;10.13;;
7473;SDS011;3778;42.572;23.426;2023-03-23T08:55:08;14.03;;;8.73;;
7473;SDS011;3778;42.572;23.426;2023-03-23T08:57:35;7.60;;;6.13;;
7473;SDS011;3778;42.572;23.426;2023-03-23T09:00:05;9.43;;;6.10;;
7473;SDS011;3778;42.572;23.426;2023-03-23T09:02:39;11.57;;;7.13;;
7473;SDS011;3778;42.572;23.426;2023-03-23T09:05:07;9.50;;;6.63;;
7473;SDS011;3778;42.572;23.426;2023-03-23T09:07:35;8.37;;;5.30;;
7473;SDS011;3778;42.572;23.426;2023-03-23T09:10:02;11.00;;;5.50;;
7473;SDS011;3778;42.572;23.426;2023-03-23T09:12:29;9.67;;;5.90;;
7473;SDS011;3778;42.572;23.426;2023-03-23T09:14:56;14.47;;;5.80;;
7473;SDS011;3778;42.572;23.426;2023-03-23T09:17:24;9.70;;;5.60;;
7473;SDS011;3778;42.572;23.426;2023-03-23T09:19:51;8.53;;;5.93;;
7473;SDS011;3778;42.572;23.426;2023-03-23T09:22:17;10.03;;;6.90;;
7473;SDS011;3778;42.572;23.426;2023-03-23T09:24:48;11.30;;;6.33;;
7473;SDS011;3778;42.572;23.426;2023-03-23T09:27:15;8.90;;;6.77;;
7473;SDS011;3778;42.572;23.426;2023-03-23T09:29:42;7.63;;;6.00;;
7473;SDS011;3778;42.572;23.426;2023-03-23T09:32:09;7.70;;;5.23;;
7473;SDS011;3778;42.572;23.426;2023-03-23T09:34:39;9.50;;;6.47;;
7473;SDS011;3778;42.572;23.426;2023-03-23T09:37:06;9.70;;;6.43;;
7473;SDS011;3778;42.572;23.426;2023-03-23T09:39:34;9.67;;;6.67;;
7473;SDS011;3778;42.572;23.426;2023-03-23T09:42:13;8.83;;;6.33;;
7473;SDS011;3778;42.572;23.426;2023-03-23T09:45:00;12.93;;;5.87;;
7473;SDS011;3778;42.572;23.426;2023-03-23T09:47:37;10.03;;;6.70;;
7473;SDS011;3778;42.572;23.426;2023-03-23T09:50:12;8.73;;;6.10;;
7473;SDS011;3778;42.572;23.426;2023-03-23T09:52:44;9.97;;;7.10;;
7473;SDS011;3778;42.572;23.426;2023-03-23T09:55:17;9.90;;;6.00;;
7473;SDS011;3778;42.572;23.426;2023-03-23T09:57:47;8.83;;;6.80;;
7473;SDS011;3778;42.572;23.426;2023-03-23T10:00:20;9.47;;;5.40;;
7473;SDS011;3778;42.572;23.426;2023-03-23T10:02:52;10.43;;;6.60;;
7473;SDS011;3778;42.572;23.426;2023-03-23T10:05:31;8.33;;;5.80;;
7473;SDS011;3778;42.572;23.426;2023-03-23T10:08:01;9.57;;;6.20;;
7473;SDS011;3778;42.572;23.426;2023-03-23T10:10:50;9.10;;;5.83;;
7473;SDS011;3778;42.572;23.426;2023-03-23T10:13:26;8.03;;;6.10;;
7473;SDS011;3778;42.572;23.426;2023-03-23T10:16:07;7.50;;;5.13;;
7473;SDS011;3778;42.572;23.426;2023-03-23T10:18:37;6.93;;;4.73;;
7473;SDS011;3778;42.572;23.426;2023-03-23T10:21:10;7.30;;;5.40;;
7473;SDS011;3778;42.572;23.426;2023-03-23T10:23:41;7.13;;;5.33;;
7473;SDS011;3778;42.572;23.426;2023-03-23T10:26:19;8.03;;;5.83;;
7473;SDS011;3778;42.572;23.426;2023-03-23T10:29:08;7.13;;;5.40;;
7473;SDS011;3778;42.572;23.426;2023-03-23T10:31:39;10.17;;;5.90;;
7473;SDS011;3778;42.572;23.426;2023-03-23T10:34:10;7.37;;;5.33;;
7473;SDS011;3778;42.572;23.426;2023-03-23T10:36:48;6.07;;;4.77;;
7473;SDS011;3778;42.572;23.426;2023-03-23T10:39:21;7.37;;;5.10;;
7473;SDS011;3778;42.572;23.426;2023-03-23T10:41:50;10.00;;;5.43;;
7473;SDS011;3778;42.572;23.426;2023-03-23T10:44:18;9.87;;;5.40;;
7473;SDS011;3778;42.572;23.426;2023-03-23T10:46:48;5.87;;;4.33;;
7473;SDS011;3778;42.572;23.426;2023-03-23T10:49:22;8.23;;;5.60;;
7473;SDS011;3778;42.572;23.426;2023-03-23T10:51:56;10.53;;;6.10;;
7473;SDS011;3778;42.572;23.426;2023-03-23T10:54:31;7.97;;;5.83;;
7473;SDS011;3778;42.572;23.426;2023-03-23T10:57:12;6.93;;;5.10;;
7473;SDS011;3778;42.572;23.426;2023-03-23T10:59:46;6.97;;;5.03;;
7473;SDS011;3778;42.572;23.426;2023-03-23T11:02:15;7.13;;;4.70;;
7473;SDS011;3778;42.572;23.426;2023-03-23T11:04:53;9.23;;;5.57;;
7473;SDS011;3778;42.572;23.426;2023-03-23T11:07:27;8.23;;;5.73;;
7473;SDS011;3778;42.572;23.426;2023-03-23T11:10:03;8.07;;;5.67;;
7473;SDS011;3778;42.572;23.426;2023-03-23T11:12:34;9.83;;;4.57;;
7473;SDS011;3778;42.572;23.426;2023-03-23T11:15:14;6.53;;;4.33;;
7473;SDS011;3778;42.572;23.426;2023-03-23T11:17:54;6.83;;;4.63;;
7473;SDS011;3778;42.572;23.426;2023-03-23T11:20:23;7.47;;;5.37;;
7473;SDS011;3778;42.572;23.426;2023-03-23T11:22:53;7.77;;;5.63;;
7473;SDS011;3778;42.572;23.426;2023-03-23T11:25:20;8.00;;;6.23;;
7473;SDS011;3778;42.572;23.426;2023-03-23T11:27:47;10.83;;;6.23;;
7473;SDS011;3778;42.572;23.426;2023-03-23T11:30:19;6.73;;;4.50;;
7473;SDS011;3778;42.572;23.426;2023-03-23T11:32:49;9.67;;;6.00;;
7473;SDS011;3778;42.572;23.426;2023-03-23T11:35:18;6.43;;;5.17;;
7473;SDS011;3778;42.572;23.426;2023-03-23T11:37:48;7.73;;;5.47;;
7473;SDS011;3778;42.572;23.426;2023-03-23T11:40:20;7.37;;;5.63;;
7473;SDS011;3778;42.572;23.426;2023-03-23T11:42:49;8.13;;;5.00;;
7473;SDS011;3778;42.572;23.426;2023-03-23T11:45:25;6.97;;;5.60;;
7473;SDS011;3778;42.572;23.426;2023-03-23T11:48:00;8.37;;;6.00;;
7473;SDS011;3778;42.572;23.426;2023-03-23T11:50:43;8.60;;;5.60;;
7473;SDS011;3778;42.572;23.426;2023-03-23T11:53:15;6.47;;;4.80;;
7473;SDS011;3778;42.572;23.426;2023-03-23T11:56:09;7.17;;;5.30;;
7473;SDS011;3778;42.572;23.426;2023-03-23T11:58:41;8.53;;;5.17;;
7473;SDS011;3778;42.572;23.426;2023-03-23T12:01:11;8.83;;;5.83;;
7473;SDS011;3778;42.572;23.426;2023-03-23T12:03:51;8.53;;;6.07;;
7473;SDS011;3778;42.572;23.426;2023-03-23T12:06:37;7.57;;;5.17;;
7473;SDS011;3778;42.572;23.426;2023-03-23T12:09:15;6.37;;;5.10;;
7473;SDS011;3778;42.572;23.426;2023-03-23T12:11:56;7.87;;;5.10;;
7473;SDS011;3778;42.572;23.426;2023-03-23T12:14:37;7.50;;;5.20;;
7473;SDS011;3778;42.572;23.426;2023-03-23T12:17:14;9.33;;;5.00;;
7473;SDS011;3778;42.572;23.426;2023-03-23T12:19:52;8.23;;;5.80;;
7473;SDS011;3778;42.572;23.426;2023-03-23T12:22:35;6.97;;;5.67;;
7473;SDS011;3778;42.572;23.426;2023-03-23T12:25:14;6.80;;;4.93;;
7473;SDS011;3778;42.572;23.426;2023-03-23T12:28:01;8.80;;;6.33;;
7473;SDS011;3778;42.572;23.426;2023-03-23T12:30:38;7.30;;;4.80;;
7473;SDS011;3778;42.572;23.426;2023-03-23T12:33:16;7.07;;;5.10;;
7473;SDS011;3778;42.572;23.426;2023-03-23T12:35:50;8.10;;;5.77;;
7473;SDS011;3778;42.572;23.426;2023-03-23T12:38:42;8.20;;;4.93;;
7473;SDS011;3778;42.572;23.426;2023-03-23T12:41:20;9.70;;;5.40;;
7473;SDS011;3778;42.572;23.426;2023-03-23T12:43:57;9.23;;;5.27;;
7473;SDS011;3778;42.572;23.426;2023-03-23T12:46:33;9.70;;;6.03;;
7473;SDS011;3778;42.572;23.426;2023-03-23T12:49:11;7.90;;;6.17;;
7473;SDS011;3778;42.572;23.426;2023-03-23T12:51:43;8.47;;;5.87;;
7473;SDS011;3778;42.572;23.426;2023-03-23T12:54:17;8.70;;;6.23;;
7473;SDS011;3778;42.572;23.426;2023-03-23T12:56:51;6.93;;;4.77;;
7473;SDS011;3778;42.572;23.426;2023-03-23T12:59:25;7.13;;;5.30;;
7473;SDS011;3778;42.572;23.426;2023-03-23T13:02:01;9.00;;;5.10;;
7473;SDS011;3778;42.572;23.426;2023-03-23T13:04:37;9.63;;;6.53;;
7473;SDS011;3778;42.572;23.426;2023-03-23T13:07:10;6.63;;;5.07;;
7473;SDS011;3778;42.572;23.426;2023-03-23T13:09:46;8.67;;;6.13;;
7473;SDS011;3778;42.572;23.426;2023-03-23T13:12:16;7.20;;;5.63;;
7473;SDS011;3778;42.572;23.426;2023-03-23T13:14:48;9.33;;;5.93;;
7473;SDS011;3778;42.572;23.426;2023-03-23T13:17:25;7.83;;;5.93;;
7473;SDS011;3778;42.572;23.426;2023-03-23T13:20:01;7.83;;;5.37;;
7473;SDS011;3778;42.572;23.426;2023-03-23T13:22:56;7.80;;;5.67;;
7473;SDS011;3778;42.572;23.426;2023-03-23T13:25:39;8.50;;;5.60;;
7473;SDS011;3778;42.572;23.426;2023-03-23T13:28:15;7.47;;;5.97;;
7473;SDS011;3778;42.572;23.426;2023-03-23T13:30:53;5.90;;;4.93;;
7473;SDS011;3778;42.572;23.426;2023-03-23T13:33:21;9.13;;;5.80;;
7473;SDS011;3778;42.572;23.426;2023-03-23T13:35:49;11.17;;;7.93;;
7473;SDS011;3778;42.572;23.426;2023-03-23T13:38:19;6.33;;;5.73;;
7473;SDS011;3778;42.572;23.426;2023-03-23T13:40:49;8.27;;;5.53;;
7473;SDS011;3778;42.572;23.426;2023-03-23T13:43:25;7.07;;;5.43;;
7473;SDS011;3778;42.572;23.426;2023-03-23T13:45:55;7.10;;;5.70;;
7473;SDS011;3778;42.572;23.426;2023-03-23T13:48:39;6.93;;;5.63;;
7473;SDS011;3778;42.572;23.426;2023-03-23T13:51:23;6.83;;;5.40;;
7473;SDS011;3778;42.572;23.426;2023-03-23T13:54:03;8.00;;;5.40;;
7473;SDS011;3778;42.572;23.426;2023-03-23T13:56:35;8.20;;;5.53;;
7473;SDS011;3778;42.572;23.426;2023-03-23T13:59:06;6.87;;;5.13;;
7473;SDS011;3778;42.572;23.426;2023-03-23T14:01:40;6.83;;;5.50;;
7473;SDS011;3778;42.572;23.426;2023-03-23T14:04:10;6.97;;;5.40;;
7473;SDS011;3778;42.572;23.426;2023-03-23T14:06:41;9.20;;;6.50;;
7473;SDS011;3778;42.572;23.426;2023-03-23T14:09:11;8.93;;;5.50;;
7473;SDS011;3778;42.572;23.426;2023-03-23T14:11:45;6.63;;;5.53;;
7473;SDS011;3778;42.572;23.426;2023-03-23T14:14:18;7.37;;;5.10;;
7473;SDS011;3778;42.572;23.426;2023-03-23T14:16:51;7.07;;;4.83;;
7473;SDS011;3778;42.572;23.426;2023-03-23T14:19:19;11.53;;;6.20;;
7473;SDS011;3778;42.572;23.426;2023-03-23T14:21:51;7.43;;;5.00;;
7473;SDS011;3778;42.572;23.426;2023-03-23T14:24:20;7.77;;;5.27;;
7473;SDS011;3778;42.572;23.426;2023-03-23T14:26:49;7.03;;;5.10;;
7473;SDS011;3778;42.572;23.426;2023-03-23T14:29:18;6.63;;;4.93;;
7473;SDS011;3778;42.572;23.426;2023-03-23T14:31:48;5.80;;;4.93;;
7473;SDS011;3778;42.572;23.426;2023-03-23T14:34:19;6.63;;;5.37;;
7473;SDS011;3778;42.572;23.426;2023-03-23T14:36:48;7.33;;;5.20;;
7473;SDS011;3778;42.572;23.426;2023-03-23T14:39:17;5.67;;;4.70;;
7473;SDS011;3778;42.572;23.426;2023-03-23T14:41:47;6.43;;;5.10;;
7473;SDS011;3778;42.572;23.426;2023-03-23T14:44:15;9.67;;;5.03;;
7473;SDS011;3778;42.572;23.426;2023-03-23T14:46:44;9.70;;;5.60;;
7473;SDS011;3778;42.572;23.426;2023-03-23T14:49:13;9.20;;;5.30;;
7473;SDS011;3778;42.572;23.426;2023-03-23T14:51:46;7.47;;;5.17;;
7473;SDS011;3778;42.572;23.426;2023-03-23T14:54:14;6.07;;;5.07;;
7473;SDS011;3778;42.572;23.426;2023-03-23T14:56:41;8.37;;;5.60;;
7473;SDS011;3778;42.572;23.426;2023-03-23T14:59:09;6.77;;;5.57;;
7473;SDS011;3778;42.572;23.426;2023-03-23T15:01:37;7.07;;;5.30;;
7473;SDS011;3778;42.572;23.426;2023-03-23T15:04:09;7.87;;;5.30;;
7473;SDS011;3778;42.572;23.426;2023-03-23T15:06:41;7.63;;;6.30;;
7473;SDS011;3778;42.572;23.426;2023-03-23T15:09:11;7.33;;;5.20;;
7473;SDS011;3778;42.572;23.426;2023-03-23T15:11:39;6.97;;;5.27;;
7473;SDS011;3778;42.572;23.426;2023-03-23T15:14:08;6.50;;;5.60;;
7473;SDS011;3778;42.572;23.426;2023-03-23T15:16:40;6.77;;;5.10;;